Terminal Aerodrome Forecast
Issued by NWS

Home | Current Version | Previous Version | Graphics & Text | Print | Product List | Glossary On
Versions: 1 2 3 4 5 6 7 8 9 10 11 12 13 14 15 16 17 18 19 20 21 22 23 24 25 26 27 28 29 30 31 32 33
000
FTUS43 KPAH 301441 AAB
TAFOWB
TAF AMD
KOWB 301441Z 3015/0112 15010KT P6SM -SHRA SCT005 OVC050
      TEMPO 3015/3016 3SM SHRA OVC005
     FM301600 18016G26KT 4SM TSRA BR OVC035CB
     FM302300 17020G30KT P6SM -SHRA VCTS OVC035CB
     FM010300 20015G25KT P6SM -SHRA OVC025
     FM010900 21009KT P6SM BKN150=

USA.gov is the U.S. government's official web portal to all federal, state and local government web resources and services.